Time;durP1;ratioP1;P1;durP2;ratioP2;P2;SDS_P1;SDS_P2;PMS_P1;PMS_P2;Temp;Humidity;BMP_temperature;BMP_pressure;BME280_temperature;BME280_humidity;BME280_pressure;Samples;Min_cycle;Max_cycle;Signal;HPM_P1;HPM_P2
2023/01/03 00:02:27;;;;;;;20.13;11.15;;;;;;;4.65;100.00;102524.66;5342232;27;20048;-82
2023/01/03 00:04:58;;;;;;;17.63;11.13;;;;;;;4.60;100.00;102524.81;5341199;27;20034;-81
2023/01/03 00:07:35;;;;;;;21.17;11.93;;;;;;;4.46;100.00;102521.88;5340945;27;20339;-82
2023/01/03 00:10:09;;;;;;;20.02;10.82;;;;;;;4.49;100.00;102521.78;5339982;27;20092;-82
2023/01/03 00:12:40;;;;;;;23.13;12.35;;;;;;;4.41;100.00;102534.41;5341455;27;20077;-81
2023/01/03 00:15:15;;;;;;;21.10;12.30;;;;;;;4.37;100.00;102533.69;5340474;27;20027;-82
2023/01/03 00:17:46;;;;;;;23.67;13.43;;;;;;;4.29;100.00;102526.03;5337694;27;20448;-81
2023/01/03 00:20:18;;;;;;;22.60;12.90;;;;;;;4.24;100.00;102522.72;5333903;27;20041;-82
2023/01/03 00:22:49;;;;;;;23.13;12.85;;;;;;;4.32;100.00;102525.94;5341009;27;20103;-82
2023/01/03 00:25:21;;;;;;;27.33;13.35;;;;;;;4.27;100.00;102519.13;5334565;27;20028;-83
2023/01/03 00:27:52;;;;;;;19.70;13.20;;;;;;;4.20;100.00;102513.19;5338601;27;20028;-82
2023/01/03 00:30:23;;;;;;;19.17;11.60;;;;;;;4.21;100.00;102520.22;5337753;27;20019;-81
2023/01/03 00:32:55;;;;;;;23.30;14.00;;;;;;;4.06;100.00;102523.44;5346821;27;20051;-81
2023/01/03 00:35:26;;;;;;;27.10;13.93;;;;;;;4.05;100.00;102519.97;5340220;27;20034;-81
2023/01/03 00:37:57;;;;;;;26.85;13.88;;;;;;;4.08;100.00;102524.25;5341855;27;20464;-82
2023/01/03 00:40:29;;;;;;;27.58;14.95;;;;;;;3.90;100.00;102526.66;5340202;27;20027;-82
2023/01/03 00:45:50;;;;;;;27.48;16.30;;;;;;;3.98;100.00;102531.69;5341623;27;21071;-82
2023/01/03 00:48:21;;;;;;;24.00;14.73;;;;;;;3.95;100.00;102539.72;5342361;27;20192;-82
2023/01/03 00:50:53;;;;;;;24.65;16.70;;;;;;;3.88;100.00;102538.22;5342171;27;20019;-82
2023/01/03 00:53:25;;;;;;;28.02;16.08;;;;;;;3.81;100.00;102539.38;5341644;27;20023;-83
2023/01/03 00:56:08;;;;;;;29.90;17.02;;;;;;;3.79;100.00;102550.84;5341704;27;20030;-83
2023/01/03 00:58:40;;;;;;;27.88;16.83;;;;;;;3.77;100.00;102550.03;5338321;27;20020;-82
2023/01/03 01:01:16;;;;;;;27.25;17.23;;;;;;;3.70;100.00;102548.53;5339636;27;20506;-82
2023/01/03 01:03:51;;;;;;;29.58;18.85;;;;;;;3.68;100.00;102544.22;5337912;27;20062;-82
2023/01/03 01:06:25;;;;;;;33.10;16.05;;;;;;;3.66;100.00;102552.19;5340989;27;20051;-82
2023/01/03 01:08:59;;;;;;;30.50;16.85;;;;;;;3.70;100.00;102545.00;5338694;27;20980;-82
2023/01/03 01:11:30;;;;;;;29.38;17.20;;;;;;;3.62;100.00;102547.09;5341385;27;20032;-82
2023/01/03 01:14:01;;;;;;;24.35;16.60;;;;;;;3.57;100.00;102549.88;5343795;27;20545;-83
2023/01/03 01:16:33;;;;;;;34.20;18.38;;;;;;;3.51;100.00;102552.75;5345692;27;27053;-82
2023/01/03 01:19:04;;;;;;;30.25;17.90;;;;;;;3.54;100.00;102556.16;5342316;27;20122;-82
2023/01/03 01:21:35;;;;;;;34.53;17.55;;;;;;;3.56;100.00;102559.59;5342557;27;20116;-82
2023/01/03 01:24:06;;;;;;;38.97;18.90;;;;;;;3.51;100.00;102561.53;5342959;27;20042;-82
2023/01/03 01:26:38;;;;;;;33.10;18.92;;;;;;;3.45;100.00;102566.16;5343401;27;20032;-82
2023/01/03 01:29:12;;;;;;;36.17;19.40;;;;;;;3.34;100.00;102562.13;5346678;27;20106;-83
2023/01/03 01:31:45;;;;;;;32.42;18.48;;;;;;;3.25;100.00;102565.09;5321080;27;20438;-83
2023/01/03 01:34:17;;;;;;;27.92;19.10;;;;;;;3.27;100.00;102576.44;5341651;27;20420;-82
2023/01/03 01:36:48;;;;;;;38.13;18.80;;;;;;;3.28;100.00;102575.53;5345537;27;20028;-82
2023/01/03 01:39:25;;;;;;;30.65;18.52;;;;;;;3.27;100.00;102565.88;5343121;27;20055;-82
2023/01/03 01:45:24;;;;;;;31.30;20.00;;;;;;;3.22;100.00;102583.63;5345216;27;20123;-82
2023/01/03 01:48:00;;;;;;;36.08;20.55;;;;;;;3.19;100.00;102587.25;5291229;27;20043;-82
2023/01/03 01:50:39;;;;;;;38.20;21.83;;;;;;;3.18;100.00;102598.72;5339203;27;20023;-82
2023/01/03 01:53:19;;;;;;;40.47;20.15;;;;;;;3.20;100.00;102591.59;5340154;27;20059;-82
2023/01/03 01:56:03;;;;;;;38.38;22.02;;;;;;;3.09;100.00;102604.28;5341403;27;20472;-82
2023/01/03 01:58:38;;;;;;;38.90;21.15;;;;;;;3.15;100.00;102598.81;5335279;27;20035;-83
2023/01/03 02:01:13;;;;;;;44.35;21.67;;;;;;;3.09;100.00;102608.72;5341748;27;21193;-82
2023/01/03 02:03:54;;;;;;;35.40;21.70;;;;;;;3.06;100.00;102603.53;5325345;27;20032;-82
2023/01/03 02:06:27;;;;;;;39.63;21.20;;;;;;;3.05;100.00;102599.16;5345981;27;20069;-82
2023/01/03 02:08:59;;;;;;;45.13;24.23;;;;;;;2.97;100.00;102602.06;5345025;27;20149;-82
2023/01/03 02:11:42;;;;;;;40.47;20.50;;;;;;;2.97;100.00;102596.78;5341324;27;20481;-82
2023/01/03 02:14:41;;;;;;;43.60;21.50;;;;;;;2.88;100.00;102592.69;5344844;27;20023;-81
2023/01/03 02:17:18;;;;;;;38.08;19.58;;;;;;;2.88;100.00;102594.47;5344295;27;20043;-82
2023/01/03 02:20:10;;;;;;;37.63;20.10;;;;;;;2.75;100.00;102596.63;5342629;27;20032;-82
2023/01/03 02:23:00;;;;;;;34.80;20.40;;;;;;;2.69;100.00;102602.09;5345368;27;20023;-83
2023/01/03 02:26:18;;;;;;;34.50;20.83;;;;;;;2.69;100.00;102610.00;5347750;27;20060;-82
2023/01/03 02:29:11;;;;;;;35.90;21.10;;;;;;;2.70;100.00;102615.22;5346839;27;20055;-82
2023/01/03 02:32:06;;;;;;;39.33;23.60;;;;;;;2.72;100.00;102608.13;5350640;27;20032;-83
2023/01/03 02:34:56;;;;;;;50.25;24.10;;;;;;;2.72;100.00;102609.88;5343645;27;20472;-82
2023/01/03 02:37:46;;;;;;;43.55;22.75;;;;;;;2.69;100.00;102613.50;5340243;27;20027;-82
2023/01/03 02:40:25;;;;;;;44.55;24.23;;;;;;;2.65;100.00;102606.59;5343856;27;20760;-82
2023/01/03 02:43:25;;;;;;;38.42;22.73;;;;;;;2.71;100.00;102597.63;5341505;27;20031;-82
2023/01/03 02:46:49;;;;;;;46.75;24.98;;;;;;;2.74;100.00;102610.72;5320284;27;20040;-82
2023/01/03 02:49:34;;;;;;;45.65;23.88;;;;;;;2.73;100.00;102607.19;5335292;27;20040;-82
2023/01/03 02:52:27;;;;;;;44.63;23.45;;;;;;;2.69;100.00;102604.72;5339879;27;20028;-83
2023/01/03 02:55:15;;;;;;;41.55;22.55;;;;;;;2.68;100.00;102603.00;5320474;27;20027;-83
2023/01/03 02:58:02;;;;;;;47.65;22.75;;;;;;;2.66;100.00;102603.03;5340253;27;20035;-83
2023/01/03 03:00:41;;;;;;;50.80;23.52;;;;;;;2.63;100.00;102593.47;5315158;27;20023;-83
2023/01/03 03:03:22;;;;;;;39.90;21.80;;;;;;;2.64;100.00;102597.81;5323184;27;20122;-83
2023/01/03 03:06:13;;;;;;;43.20;23.40;;;;;;;2.65;100.00;102596.91;5338572;27;20088;-83
2023/01/03 03:08:46;;;;;;;39.65;22.40;;;;;;;2.65;100.00;102601.31;5343452;27;20075;-83
2023/01/03 03:14:16;;;;;;;40.17;22.10;;;;;;;2.69;100.00;102605.59;5337111;27;20032;-83
2023/01/03 03:16:50;;;;;;;48.20;22.60;;;;;;;2.65;100.00;102609.22;5338117;27;20043;-82
2023/01/03 03:26:09;;;;;;;41.88;22.70;;;;;;;2.69;100.00;102605.59;5337702;27;20031;-82
2023/01/03 03:28:46;;;;;;;39.40;21.80;;;;;;;2.69;100.00;102600.31;5336632;27;20024;-83
2023/01/03 03:31:39;;;;;;;40.35;21.27;;;;;;;2.62;100.00;102596.16;5340934;27;20028;-83
2023/01/03 03:34:29;;;;;;;45.78;23.20;;;;;;;2.63;100.00;102597.88;5332992;27;20046;-83
2023/01/03 03:37:18;;;;;;;40.58;22.08;;;;;;;2.69;100.00;102608.22;5334074;27;20074;-83
2023/01/03 03:45:50;;;;;;;46.35;23.33;;;;;;;2.61;100.00;102605.84;5333387;27;20062;-83
2023/01/03 03:48:30;;;;;;;38.75;21.83;;;;;;;2.64;100.00;102603.06;5319690;27;20027;-82
2023/01/03 03:51:16;;;;;;;43.75;23.13;;;;;;;2.63;100.00;102605.78;5337641;27;20111;-82
2023/01/03 03:53:50;;;;;;;43.20;22.40;;;;;;;2.64;100.00;102599.59;5341139;27;20110;-83
2023/01/03 03:56:30;;;;;;;45.60;23.27;;;;;;;2.61;100.00;102605.84;5338418;27;20031;-83
2023/01/03 03:59:05;;;;;;;46.55;23.85;;;;;;;2.63;100.00;102596.09;5336626;27;20019;-82
2023/01/03 04:01:41;;;;;;;41.63;22.85;;;;;;;2.67;100.00;102604.78;5331788;27;20042;-82
2023/01/03 04:04:23;;;;;;;42.45;22.33;;;;;;;2.64;100.00;102610.97;5331262;27;20047;-82
2023/01/03 04:06:54;;;;;;;50.92;23.88;;;;;;;2.73;100.00;102598.44;5337236;27;20026;-82
2023/01/03 04:09:26;;;;;;;49.50;24.20;;;;;;;2.72;100.00;102602.84;5340342;27;20031;-82
2023/01/03 04:11:57;;;;;;;44.58;23.40;;;;;;;2.72;100.00;102607.25;5337091;27;20020;-83
2023/01/03 04:14:28;;;;;;;41.97;23.00;;;;;;;2.66;100.00;102603.03;5339578;27;20121;-82
2023/01/03 04:17:00;;;;;;;44.75;23.02;;;;;;;2.66;100.00;102610.94;5337199;27;20024;-82
2023/01/03 04:19:31;;;;;;;46.47;22.80;;;;;;;2.68;100.00;102598.56;5336994;27;20039;-81
2023/01/03 04:22:02;;;;;;;37.10;20.65;;;;;;;2.65;100.00;102596.91;5337025;27;20050;-82
2023/01/03 04:24:33;;;;;;;39.85;21.83;;;;;;;2.68;100.00;102598.56;5338207;27;20054;-82
2023/01/03 04:27:06;;;;;;;46.33;23.67;;;;;;;2.70;100.00;102609.06;5333069;27;20079;-82
2023/01/03 04:29:37;;;;;;;42.28;22.48;;;;;;;2.61;100.00;102603.19;5341005;27;20108;-82
2023/01/03 04:32:08;;;;;;;45.40;23.73;;;;;;;2.60;100.00;102601.47;5339899;27;20024;-82
2023/01/03 04:34:40;;;;;;;46.58;22.85;;;;;;;2.58;100.00;102597.16;5339387;27;20032;-82
2023/01/03 04:37:11;;;;;;;49.75;25.85;;;;;;;2.59;100.00;102598.88;5338360;27;20503;-83
2023/01/03 04:39:42;;;;;;;45.65;24.50;;;;;;;2.60;100.00;102600.59;5335645;27;20032;-82
2023/01/03 04:45:04;;;;;;;53.05;27.85;;;;;;;2.68;100.00;102606.47;5336987;27;20036;-83
2023/01/03 04:47:35;;;;;;;58.03;29.20;;;;;;;2.65;100.00;102611.88;5339132;27;20073;-81
2023/01/03 04:50:08;;;;;;;68.43;28.50;;;;;;;2.59;100.00;102604.13;5337776;27;20035;-82
2023/01/03 04:52:39;;;;;;;50.38;26.73;;;;;;;2.63;100.00;102611.06;5319967;27;20884;-82
2023/01/03 04:55:12;;;;;;;59.47;28.92;;;;;;;2.57;100.00;102604.19;5336266;27;20028;-82
2023/01/03 04:57:43;;;;;;;60.85;30.10;;;;;;;2.54;100.00;102599.03;5334569;27;20022;-82
2023/01/03 05:00:14;;;;;;;61.53;29.70;;;;;;;2.60;100.00;102603.25;5336488;27;20023;-82
2023/01/03 05:02:46;;;;;;;56.35;29.52;;;;;;;2.60;100.00;102600.59;5338519;27;20243;-82
2023/01/03 05:05:17;;;;;;;63.47;29.42;;;;;;;2.69;100.00;102605.59;5339181;27;20089;-82
2023/01/03 05:07:48;;;;;;;58.92;28.98;;;;;;;2.70;100.00;102594.16;5339272;27;20032;-82
2023/01/03 05:10:19;;;;;;;65.13;29.83;;;;;;;2.69;100.00;102589.78;5335150;27;20050;-82
2023/01/03 05:13:00;;;;;;;65.07;28.90;;;;;;;2.68;100.00;102592.44;5334327;27;20023;-83
2023/01/03 05:15:35;;;;;;;62.47;29.23;;;;;;;2.75;100.00;102596.63;5336777;27;20490;-82
2023/01/03 05:18:06;;;;;;;59.88;28.58;;;;;;;2.72;100.00;102592.31;5332180;27;20036;-82
2023/01/03 05:26:20;;;;;;;62.55;27.88;;;;;;;2.72;100.00;102594.06;5320153;27;20044;-83
2023/01/03 05:28:53;;;;;;;52.15;26.45;;;;;;;2.76;100.00;102585.19;5338146;27;20074;-82
2023/01/03 05:31:25;;;;;;;59.65;27.20;;;;;;;2.73;100.00;102582.63;5329764;27;20034;-81
2023/01/03 05:33:56;;;;;;;57.25;26.63;;;;;;;2.77;100.00;102584.25;5337821;27;20375;-82
2023/01/03 05:36:27;;;;;;;53.60;27.08;;;;;;;2.76;100.00;102578.13;5335045;27;20325;-82
2023/01/03 05:38:58;;;;;;;61.72;25.98;;;;;;;2.75;100.00;102565.00;5340796;27;20062;-82
2023/01/03 05:44:20;;;;;;;52.95;24.73;;;;;;;2.72;100.00;102567.72;5333569;27;20109;-81
2023/01/03 05:46:52;;;;;;;49.20;21.52;;;;;;;2.81;100.00;102580.63;5333278;27;20085;-83
2023/01/03 05:49:23;;;;;;;55.65;25.92;;;;;;;2.91;100.00;102587.31;5338550;27;20023;-83
2023/01/03 05:51:55;;;;;;;51.92;23.42;;;;;;;3.01;100.00;102585.22;5331427;27;20030;-82
2023/01/03 05:54:26;;;;;;;54.42;23.77;;;;;;;3.04;100.00;102574.59;5317410;27;20059;-81
2023/01/03 05:56:57;;;;;;;45.15;22.13;;;;;;;3.17;100.00;102575.03;5312545;27;21952;-83
2023/01/03 05:59:29;;;;;;;46.97;23.13;;;;;;;3.20;100.00;102573.13;5316995;27;20028;-83
2023/01/03 06:02:00;;;;;;;49.88;24.67;;;;;;;3.32;100.00;102569.22;5341239;27;20034;-82
2023/01/03 06:04:31;;;;;;;43.05;21.90;;;;;;;3.43;100.00;102562.72;5322630;27;20478;-82
2023/01/03 06:07:02;;;;;;;44.65;22.42;;;;;;;3.54;100.00;102558.78;5344719;27;20036;-83
2023/01/03 06:09:34;;;;;;;44.13;22.52;;;;;;;3.64;100.00;102558.44;5343572;27;20113;-83
2023/01/03 06:12:05;;;;;;;42.10;22.00;;;;;;;3.72;100.00;102556.41;5344238;27;20239;-81
2023/01/03 06:14:36;;;;;;;44.17;21.15;;;;;;;3.76;100.00;102555.38;5340085;27;20051;-82
2023/01/03 06:20:03;;;;;;;43.95;20.08;;;;;;;3.87;100.00;102547.91;5322837;27;20528;-82
2023/01/03 06:22:34;;;;;;;37.45;19.60;;;;;;;3.94;100.00;102553.81;5363134;27;20024;-82
2023/01/03 06:25:06;;;;;;;34.67;19.55;;;;;;;3.96;100.00;102551.97;5357945;27;20039;-82
2023/01/03 06:27:37;;;;;;;37.55;19.67;;;;;;;4.02;100.00;102551.75;5362218;27;20050;-82
2023/01/03 06:30:09;;;;;;;34.33;19.17;;;;;;;4.03;100.00;102553.47;5362475;27;20019;-83
2023/01/03 06:32:41;;;;;;;34.85;19.17;;;;;;;4.11;100.00;102545.25;5355432;27;20027;-83
2023/01/03 06:35:13;;;;;;;30.88;17.50;;;;;;;4.14;100.00;102551.28;5358943;27;20960;-83
2023/01/03 06:37:44;;;;;;;36.33;17.55;;;;;;;4.15;100.00;102538.94;5359354;27;20027;-83
2023/01/03 06:40:15;;;;;;;27.15;18.95;;;;;;;4.18;100.00;102545.91;5354859;27;20023;-83
2023/01/03 06:42:46;;;;;;;31.05;18.08;;;;;;;4.18;100.00;102546.75;5357269;27;20089;-83
2023/01/03 06:53:49;;;;;;;32.55;18.88;;;;;;;4.10;100.00;102525.03;5361991;27;20035;-83
2023/01/03 06:56:21;;;;;;;31.48;18.75;;;;;;;4.15;100.00;102529.25;5361633;27;20046;-83
2023/01/03 06:58:53;;;;;;;32.22;18.75;;;;;;;4.14;100.00;102521.38;5354379;27;20730;-82
2023/01/03 07:01:24;;;;;;;32.65;18.25;;;;;;;4.10;100.00;102522.41;5350239;27;20088;-82
2023/01/03 07:03:56;;;;;;;33.45;19.23;;;;;;;4.11;100.00;102539.97;5353820;27;20031;-82
2023/01/03 07:06:27;;;;;;;31.73;18.88;;;;;;;4.24;100.00;102532.44;5356957;27;20039;-82
2023/01/03 07:08:59;;;;;;;29.27;18.08;;;;;;;4.19;100.00;102531.75;5355586;27;20031;-82
2023/01/03 07:11:31;;;;;;;28.50;17.08;;;;;;;4.16;100.00;102543.31;5361220;27;20102;-82
2023/01/03 07:14:04;;;;;;;29.52;17.45;;;;;;;4.14;100.00;102556.56;5349738;27;20490;-81
2023/01/03 07:16:44;;;;;;;28.52;18.75;;;;;;;4.32;100.00;102581.41;5356755;27;20452;-81
2023/01/03 07:19:18;;;;;;;27.95;18.83;;;;;;;4.37;100.00;102578.59;5345954;27;21070;-82
2023/01/03 07:21:49;;;;;;;34.13;19.48;;;;;;;4.46;100.00;102578.22;5317253;27;20430;-82
2023/01/03 07:24:20;;;;;;;32.53;18.75;;;;;;;4.53;100.00;102578.84;5338077;27;20028;-82
2023/01/03 07:26:52;;;;;;;30.63;19.50;;;;;;;4.58;100.00;102576.03;5340596;27;20472;-82
2023/01/03 07:29:23;;;;;;;32.50;18.10;;;;;;;4.61;100.00;102579.41;5336675;27;20035;-82
2023/01/03 07:31:54;;;;;;;36.65;19.02;;;;;;;4.65;100.00;102565.16;5348162;27;20062;-81
2023/01/03 07:34:25;;;;;;;33.70;18.23;;;;;;;4.70;100.00;102557.03;5338562;27;20866;-82
2023/01/03 07:36:57;;;;;;;32.63;19.45;;;;;;;4.71;100.00;102570.16;5341574;27;20383;-82
2023/01/03 07:39:28;;;;;;;31.95;18.98;;;;;;;4.79;100.00;102567.22;5338345;27;20958;-82
2023/01/03 07:44:49;;;;;;;33.72;18.30;;;;;;;4.78;100.00;102575.22;5338727;27;20024;-82
2023/01/03 07:47:20;;;;;;;34.58;18.00;;;;;;;4.80;100.00;102576.03;5332597;27;20454;-82
2023/01/03 07:49:52;;;;;;;37.20;18.80;;;;;;;4.79;100.00;102569.88;5334230;27;20104;-83
2023/01/03 07:52:23;;;;;;;35.65;20.35;;;;;;;4.78;100.00;102573.44;5335877;27;20036;-82
2023/01/03 07:54:54;;;;;;;35.90;18.63;;;;;;;4.79;100.00;102588.38;5336575;27;20100;-82
2023/01/03 07:57:26;;;;;;;37.85;20.83;;;;;;;4.72;100.00;102584.28;5335387;27;20030;-82
2023/01/03 07:59:57;;;;;;;36.53;19.00;;;;;;;4.73;100.00;102591.25;5332049;27;20030;-82
2023/01/03 08:02:28;;;;;;;36.78;18.83;;;;;;;4.66;100.00;102582.75;5333847;27;20974;-82
2023/01/03 08:05:00;;;;;;;39.95;19.98;;;;;;;4.65;100.00;102591.59;5334400;27;20073;-82
2023/01/03 08:07:31;;;;;;;38.22;20.15;;;;;;;4.71;100.00;102599.25;5333122;27;20016;-82
2023/01/03 08:15:56;;;;;;;42.33;21.65;;;;;;;4.92;100.00;102610.75;5336522;27;20032;-83
2023/01/03 08:18:27;;;;;;;39.72;21.33;;;;;;;5.00;100.00;102615.75;5330889;27;20365;-82
2023/01/03 08:20:59;;;;;;;39.95;19.05;;;;;;;5.01;100.00;102608.66;5336355;27;20031;-82
2023/01/03 08:23:30;;;;;;;38.35;20.83;;;;;;;5.04;100.00;102617.31;5333578;27;20373;-82
2023/01/03 08:26:03;;;;;;;40.13;20.15;;;;;;;5.05;100.00;102618.19;5337068;27;20027;-83
2023/01/03 08:28:36;;;;;;;42.53;20.30;;;;;;;5.14;100.00;102619.56;5312375;27;20042;-82
2023/01/03 08:31:15;;;;;;;41.95;21.50;;;;;;;5.22;100.00;102615.69;5306565;27;20024;-82
2023/01/03 08:33:54;;;;;;;40.38;22.65;;;;;;;5.27;100.00;102620.81;5337739;27;20039;-82
2023/01/03 08:36:31;;;;;;;44.33;22.60;;;;;;;5.32;100.00;102615.31;5337373;27;20118;-82
2023/01/03 08:39:10;;;;;;;44.22;20.77;;;;;;;5.53;100.00;102624.13;5337869;27;20028;-83
2023/01/03 08:41:45;;;;;;;46.60;23.63;;;;;;;5.53;100.00;102619.69;5334644;27;20020;-82
2023/01/03 08:44:17;;;;;;;50.17;23.08;;;;;;;5.57;100.00;102623.91;5336039;27;20031;-83
2023/01/03 08:46:52;;;;;;;48.53;24.23;;;;;;;5.64;100.00;102625.38;5331043;27;20020;-83
2023/01/03 08:49:23;;;;;;;46.03;21.88;;;;;;;5.73;100.00;102629.41;5334457;27;20027;-82
2023/01/03 08:51:55;;;;;;;46.63;22.83;;;;;;;5.78;100.00;102631.84;5337847;27;20015;-82
2023/01/03 08:54:26;;;;;;;43.50;23.30;;;;;;;5.75;100.00;102638.16;5337739;27;20027;-82
2023/01/03 08:56:57;;;;;;;39.50;22.80;;;;;;;5.76;100.00;102637.22;5338015;27;20371;-82
2023/01/03 08:59:28;;;;;;;38.45;21.23;;;;;;;5.79;100.00;102644.19;5335308;27;20115;-82
2023/01/03 09:02:00;;;;;;;45.25;22.75;;;;;;;5.78;100.00;102630.06;5320352;27;20027;-82
2023/01/03 09:04:32;;;;;;;42.75;21.83;;;;;;;5.80;100.00;102637.94;5338891;27;20043;-83
2023/01/03 09:07:04;;;;;;;42.83;22.65;;;;;;;5.80;100.00;102643.25;5312673;27;20024;-82
2023/01/03 09:09:35;;;;;;;40.45;21.23;;;;;;;5.82;100.00;102644.91;5336604;27;20028;-82
2023/01/03 09:12:06;;;;;;;41.92;23.40;;;;;;;5.86;100.00;102642.97;5334052;27;20028;-82
2023/01/03 09:14:37;;;;;;;42.22;22.33;;;;;;;5.86;100.00;102643.84;5329256;27;20020;-83
2023/01/03 09:17:09;;;;;;;38.90;22.73;;;;;;;5.85;100.00;102647.41;5333271;27;20039;-82
2023/01/03 09:19:40;;;;;;;40.40;21.27;;;;;;;5.91;100.00;102645.41;5334013;27;20122;-83
2023/01/03 09:22:12;;;;;;;39.42;22.27;;;;;;;5.92;100.00;102644.50;5354511;27;20042;-82
2023/01/03 09:24:43;;;;;;;39.47;22.48;;;;;;;5.95;100.00;102647.88;5354210;27;20070;-82
2023/01/03 09:27:14;;;;;;;37.22;20.83;;;;;;;5.94;100.00;102646.13;5355455;27;20028;-82
2023/01/03 09:29:47;;;;;;;39.50;22.50;;;;;;;5.97;100.00;102650.47;5347779;27;20103;-83
2023/01/03 09:32:19;;;;;;;35.65;21.17;;;;;;;6.03;100.00;102645.78;5353720;27;20024;-83
2023/01/03 09:34:50;;;;;;;34.75;21.38;;;;;;;6.05;100.00;102646.56;5355999;27;20487;-82
2023/01/03 09:37:22;;;;;;;34.58;19.83;;;;;;;6.09;100.00;102644.63;5350074;27;20012;-82
2023/01/03 09:39:53;;;;;;;37.53;19.25;;;;;;;6.10;100.00;102643.72;5359743;27;20363;-83
2023/01/03 09:45:31;;;;;;;39.95;19.60;;;;;;;6.27;100.00;102655.31;5362476;27;20020;-82
2023/01/03 09:48:04;;;;;;;37.20;19.67;;;;;;;6.21;100.00;102651.19;5363354;27;20062;-83
2023/01/03 09:50:37;;;;;;;39.30;19.83;;;;;;;6.22;100.00;102653.75;5338454;27;20023;-82
2023/01/03 10:05:40;;;;;;;29.00;16.90;;;;;;;6.47;100.00;102638.50;5356858;27;20035;-81
2023/01/03 10:08:36;;;;;;;28.90;16.00;;;;;;;6.47;100.00;102644.69;5361291;27;20043;-82
2023/01/03 10:11:16;;;;;;;25.75;15.30;;;;;;;6.53;100.00;102640.88;5372201;27;20023;-81
2023/01/03 10:14:06;;;;;;;35.55;16.85;;;;;;;6.55;100.00;102637.19;5368822;27;20034;-81
2023/01/03 10:16:48;;;;;;;26.73;14.45;;;;;;;6.60;100.00;102648.44;5367872;27;20142;-82
2023/01/03 10:19:33;;;;;;;23.48;14.27;;;;;;;6.60;100.00;102645.81;5352458;27;20059;-81
2023/01/03 10:22:29;;;;;;;27.58;15.38;;;;;;;6.69;100.00;102641.84;5315022;27;20032;-81
2023/01/03 10:25:03;;;;;;;23.70;14.88;;;;;;;6.68;100.00;102647.22;5333844;27;20020;-81
2023/01/03 10:27:46;;;;;;;24.30;13.95;;;;;;;6.75;100.00;102644.22;5336050;27;20042;-81
2023/01/03 10:30:26;;;;;;;20.77;13.90;;;;;;;6.75;100.00;102646.88;5337454;27;20023;-81
2023/01/03 10:33:44;;;;;;;21.75;12.68;;;;;;;6.87;100.00;102642.75;5335354;27;20110;-82
2023/01/03 10:36:20;;;;;;;22.40;12.68;;;;;;;6.92;100.00;102646.03;5321747;27;20381;-82
2023/01/03 10:39:05;;;;;;;23.35;13.40;;;;;;;6.95;100.00;102647.72;5342278;27;20372;-82
2023/01/03 10:41:45;;;;;;;20.90;12.32;;;;;;;6.95;100.00;102639.75;5337293;27;20559;-82
2023/01/03 10:44:25;;;;;;;21.27;11.52;;;;;;;7.08;100.00;102643.53;5340988;27;20151;-82
2023/01/03 10:47:06;;;;;;;19.27;13.65;;;;;;;7.06;100.00;102653.34;5322974;27;20112;-82
2023/01/03 10:49:43;;;;;;;20.90;11.85;;;;;;;7.10;100.00;102640.78;5340266;27;20034;-82
2023/01/03 10:52:18;;;;;;;21.08;12.23;;;;;;;7.09;100.00;102639.06;5338098;27;20024;-82
2023/01/03 10:54:53;;;;;;;18.58;11.32;;;;;;;7.07;100.00;102636.50;5335112;27;20020;-82
2023/01/03 10:57:42;;;;;;;24.08;11.18;;;;;;;7.11;100.00;102648.66;5336161;27;20024;-82
2023/01/03 11:00:21;;;;;;;17.55;10.88;;;;;;;7.12;100.00;102639.78;5338629;27;20084;-83
2023/01/03 11:02:55;;;;;;;18.05;11.38;;;;;;;7.10;100.00;102636.34;5338804;27;20476;-82
2023/01/03 11:05:26;;;;;;;20.75;11.73;;;;;;;7.09;100.00;102633.75;5341582;27;20034;-82
2023/01/03 11:08:02;;;;;;;27.25;12.90;;;;;;;7.12;100.00;102636.28;5340181;27;20027;-82
2023/01/03 11:10:48;;;;;;;18.77;11.27;;;;;;;7.12;100.00;102628.31;5340719;27;20038;-82
2023/01/03 11:13:26;;;;;;;18.35;10.45;;;;;;;7.16;100.00;102627.22;5312868;27;20020;-82
2023/01/03 11:16:01;;;;;;;14.60;10.10;;;;;;;7.15;100.00;102630.78;5338432;27;20039;-82
2023/01/03 11:18:32;;;;;;;17.73;10.30;;;;;;;7.16;100.00;102636.03;5339877;27;20039;-82
2023/01/03 11:21:10;;;;;;;17.63;10.48;;;;;;;7.16;100.00;102633.38;5345829;27;20434;-83
2023/01/03 11:23:54;;;;;;;18.05;9.77;;;;;;;7.19;100.00;102630.56;5347845;27;20031;-82
2023/01/03 11:26:37;;;;;;;19.20;10.18;;;;;;;7.21;100.00;102630.50;5336592;27;20440;-81
2023/01/03 11:29:38;;;;;;;18.35;10.25;;;;;;;7.21;100.00;102633.16;5342018;27;20124;-82
2023/01/03 11:32:24;;;;;;;20.08;10.98;;;;;;;7.21;100.00;102627.84;5344059;27;20064;-82
2023/01/03 11:35:14;;;;;;;19.00;11.13;;;;;;;7.16;100.00;102629.88;5349432;27;20034;-83
2023/01/03 11:38:00;;;;;;;19.50;11.35;;;;;;;7.11;100.00;102637.19;5348909;27;20400;-82
2023/01/03 11:40:59;;;;;;;18.10;12.25;;;;;;;7.12;100.00;102633.63;5340277;27;20034;-82
2023/01/03 11:43:48;;;;;;;19.98;11.98;;;;;;;7.09;100.00;102625.81;5331421;27;20027;-82
2023/01/03 11:46:38;;;;;;;19.05;11.77;;;;;;;7.06;100.00;102615.34;5341012;27;20072;-82
2023/01/03 11:49:27;;;;;;;17.25;12.05;;;;;;;6.98;100.00;102619.22;5344850;27;20047;-82
2023/01/03 11:52:18;;;;;;;19.08;11.90;;;;;;;6.99;100.00;102620.97;5347128;27;20036;-81
2023/01/03 11:55:14;;;;;;;19.58;11.80;;;;;;;7.10;100.00;102617.78;5355016;27;20028;-81
2023/01/03 11:58:23;;;;;;;16.13;11.05;;;;;;;7.11;100.00;102613.31;5333143;27;20020;-82
2023/01/03 12:01:05;;;;;;;17.77;10.10;;;;;;;7.19;100.00;102611.16;5348349;27;20028;-82
2023/01/03 12:04:11;;;;;;;12.15;7.95;;;;;;;7.39;100.00;102597.69;5359066;27;20039;-82
2023/01/03 12:07:04;;;;;;;13.88;9.45;;;;;;;7.89;100.00;102596.00;5359715;27;20031;-82
2023/01/03 12:10:03;;;;;;;14.57;9.95;;;;;;;9.54;100.00;102591.16;5354246;27;20008;-82
2023/01/03 12:13:06;;;;;;;9.93;6.85;;;;;;;9.58;100.00;102588.19;5326718;27;20027;-82
2023/01/03 12:15:41;;;;;;;6.43;4.85;;;;;;;9.32;100.00;102586.25;5342738;27;20459;-81
2023/01/03 12:18:36;;;;;;;8.73;4.33;;;;;;;9.62;100.00;102567.53;5358895;27;20024;-82
2023/01/03 12:21:17;;;;;;;6.95;3.50;;;;;;;9.08;100.00;102582.28;5320454;27;20039;-82
2023/01/03 12:24:01;;;;;;;7.53;4.10;;;;;;;9.27;100.00;102557.22;5359579;27;20106;-82
2023/01/03 12:26:37;;;;;;;9.75;3.70;;;;;;;9.93;100.00;102557.66;5363321;27;20047;-82
2023/01/03 12:29:17;;;;;;;7.45;3.60;;;;;;;9.52;100.00;102548.59;5356572;27;20024;-82
2023/01/03 12:32:13;;;;;;;5.78;3.60;;;;;;;9.34;100.00;102549.72;5359270;27;20063;-82
2023/01/03 12:35:17;;;;;;;6.13;4.00;;;;;;;9.20;100.00;102551.41;5362215;27;20329;-82
2023/01/03 12:37:50;;;;;;;8.50;5.18;;;;;;;8.80;100.00;102545.78;5348060;27;20034;-83
2023/01/03 12:40:45;;;;;;;10.18;5.82;;;;;;;8.78;100.00;102550.31;5348485;27;20020;-82
2023/01/03 12:43:57;;;;;;;11.20;5.85;;;;;;;8.63;100.00;102551.22;5348792;27;20067;-82
2023/01/03 12:46:38;;;;;;;9.07;6.30;;;;;;;8.54;100.00;102538.41;5334447;27;20040;-82
2023/01/03 12:49:19;;;;;;;10.82;6.43;;;;;;;8.36;100.00;102548.28;5342931;27;20024;-82
2023/01/03 12:51:51;;;;;;;8.85;6.68;;;;;;;8.30;100.00;102555.66;5343445;27;20024;-82
2023/01/03 12:54:47;;;;;;;10.32;6.43;;;;;;;8.36;100.00;102551.78;5350113;27;20020;-82
2023/01/03 12:57:41;;;;;;;9.20;6.10;;;;;;;8.33;100.00;102544.84;5356302;27;20081;-82
2023/01/03 13:00:40;;;;;;;9.25;6.03;;;;;;;8.24;100.00;102553.34;5351089;27;20044;-82
2023/01/03 13:03:18;;;;;;;8.95;5.55;;;;;;;8.20;100.00;102550.94;5335497;27;20086;-82
2023/01/03 13:05:56;;;;;;;9.38;5.97;;;;;;;8.19;100.00;102551.88;5339044;27;20432;-82